Time;durP1;ratioP1;P1;durP2;ratioP2;P2;SDS_P1;SDS_P2;PMS_P1;PMS_P2;Temp;Humidity;BMP_temperature;BMP_pressure;BME280_temperature;BME280_humidity;BME280_pressure;Samples;Min_cycle;Max_cycle;Signal;HPM_P1;HPM_P2
2023/10/20 00:00:46;;;;;;;4.10;1.60;;;;;;;14.89;100.00;149825.13;5018032;28;20596;-57
2023/10/20 00:03:13;;;;;;;4.30;1.70;;;;;;;14.89;100.00;149825.13;5018271;28;20230;-57
2023/10/20 00:05:39;;;;;;;2.77;1.63;;;;;;;14.98;100.00;149846.31;5017674;28;20225;-57
2023/10/20 00:08:07;;;;;;;5.60;1.90;;;;;;;14.97;100.00;149845.09;5013589;28;20703;-58
2023/10/20 00:10:35;;;;;;;4.07;1.70;;;;;;;14.99;100.00;149850.09;5017276;28;20244;-57
2023/10/20 00:13:01;;;;;;;3.47;1.80;;;;;;;14.83;100.00;149811.41;5017462;28;20233;-57
2023/10/20 00:15:29;;;;;;;2.77;1.70;;;;;;;14.75;100.00;149791.41;5011853;28;20234;-56
2023/10/20 00:17:55;;;;;;;9.77;1.93;;;;;;;14.61;100.00;149757.63;5021324;28;20222;-58
2023/10/20 00:20:22;;;;;;;6.40;2.17;;;;;;;14.45;100.00;149720.16;5033370;28;20248;-58
2023/10/20 00:22:51;;;;;;;3.03;1.60;;;;;;;14.45;100.00;149718.94;5016972;28;20600;-57
2023/10/20 00:25:19;;;;;;;6.70;1.70;;;;;;;14.35;100.00;149693.97;5016527;28;20225;-57
2023/10/20 00:27:52;;;;;;;3.43;1.90;;;;;;;14.18;100.00;149654.03;5016921;28;20231;-57
2023/10/20 00:30:19;;;;;;;3.33;1.47;;;;;;;14.21;100.00;149661.50;5011915;28;20217;-57
2023/10/20 00:32:45;;;;;;;3.93;1.53;;;;;;;14.11;100.00;149636.53;5016912;28;20700;-58
2023/10/20 00:35:13;;;;;;;2.37;1.57;;;;;;;14.06;100.00;149625.31;5030663;28;20218;-57
2023/10/20 00:37:40;;;;;;;4.40;2.03;;;;;;;14.04;100.00;149620.34;5028336;28;20264;-58
2023/10/20 00:40:08;;;;;;;3.57;1.80;;;;;;;14.09;100.00;149631.53;5014702;28;20270;-57
2023/10/20 00:42:37;;;;;;;4.43;1.97;;;;;;;14.19;100.00;149656.50;5020841;28;20241;-57
2023/10/20 00:45:05;;;;;;;3.60;2.00;;;;;;;14.35;100.00;149695.19;5028226;28;20256;-58
2023/10/20 00:47:32;;;;;;;2.33;1.70;;;;;;;14.34;100.00;149691.47;5015304;28;20227;-57
2023/10/20 00:49:59;;;;;;;2.97;2.67;;;;;;;14.42;100.00;149711.44;5015249;28;20229;-58
2023/10/20 00:52:29;;;;;;;2.23;1.80;;;;;;;14.45;100.00;149720.16;5013070;28;20245;-57
2023/10/20 00:54:55;;;;;;;3.23;1.83;;;;;;;14.36;100.00;149696.47;5021758;28;20599;-58
2023/10/20 00:57:23;;;;;;;2.93;1.90;;;;;;;14.43;100.00;149713.94;5014518;28;20240;-57
2023/10/20 00:59:51;;;;;;;4.87;2.20;;;;;;;14.40;100.00;149707.69;5033612;28;20232;-57
2023/10/20 01:02:17;;;;;;;1.57;1.47;;;;;;;14.36;100.00;149697.69;5027919;28;20229;-58
2023/10/20 01:04:44;;;;;;;3.47;1.60;;;;;;;14.32;100.00;149687.69;5030860;28;20224;-57
2023/10/20 01:07:11;;;;;;;6.87;1.93;;;;;;;14.29;100.00;149681.47;5015843;28;20217;-58
2023/10/20 01:09:38;;;;;;;5.37;1.70;;;;;;;14.26;100.00;149674.00;5014964;28;20318;-58
2023/10/20 01:12:05;;;;;;;5.57;1.87;;;;;;;14.41;100.00;149708.94;5012666;28;20245;-57
2023/10/20 01:14:32;;;;;;;5.00;2.10;;;;;;;14.70;100.00;149778.94;5018095;28;20243;-58
2023/10/20 01:17:00;;;;;;;3.33;1.63;;;;;;;14.55;100.00;149743.91;5033189;28;20685;-57
2023/10/20 01:19:27;;;;;;;2.20;1.63;;;;;;;14.44;100.00;149717.66;5012562;28;21489;-58
2023/10/20 01:21:53;;;;;;;7.90;2.00;;;;;;;14.27;100.00;149676.50;5016035;28;20251;-58
2023/10/20 01:24:22;;;;;;;3.60;1.80;;;;;;;14.24;100.00;149669.00;5013941;28;20219;-57
2023/10/20 01:26:48;;;;;;;8.53;3.17;;;;;;;14.16;100.00;149649.03;5017329;28;20240;-58
2023/10/20 01:29:15;;;;;;;4.93;1.80;;;;;;;14.02;100.00;149616.56;5009972;28;20216;-57
2023/10/20 01:31:42;;;;;;;3.87;2.93;;;;;;;14.01;100.00;149612.84;5013738;28;20237;-58
2023/10/20 01:34:09;;;;;;;9.70;6.33;;;;;;;13.93;100.00;149592.88;5012615;28;20224;-57
2023/10/20 01:36:37;;;;;;;12.10;8.63;;;;;;;13.83;100.00;149569.13;5029577;28;20319;-58
2023/10/20 01:39:04;;;;;;;10.30;7.40;;;;;;;13.79;100.00;149560.41;5012298;28;20254;-57
2023/10/20 01:41:33;;;;;;;8.47;6.50;;;;;;;13.75;100.00;149550.44;5016911;28;20235;-58
2023/10/20 01:43:59;;;;;;;4.30;3.27;;;;;;;13.72;100.00;149542.94;5020036;28;20232;-58
2023/10/20 01:46:26;;;;;;;6.60;3.67;;;;;;;13.71;100.00;149540.44;5014685;28;20239;-57
2023/10/20 01:48:52;;;;;;;6.43;4.13;;;;;;;13.71;100.00;149540.44;5011433;28;20749;-57
2023/10/20 01:51:19;;;;;;;5.47;4.47;;;;;;;13.68;100.00;149534.22;5012102;28;20234;-58
2023/10/20 01:53:46;;;;;;;4.93;3.77;;;;;;;13.64;100.00;149522.97;5016140;28;20683;-56
2023/10/20 01:56:13;;;;;;;8.33;1.97;;;;;;;13.60;100.00;149514.25;5015731;28;20213;-58
2023/10/20 01:58:41;;;;;;;3.13;1.93;;;;;;;13.60;100.00;149513.00;5015368;28;20254;-57
2023/10/20 02:01:08;;;;;;;4.57;1.97;;;;;;;13.60;100.00;149513.00;5009846;28;20688;-58
2023/10/20 02:03:35;;;;;;;4.53;2.17;;;;;;;13.61;100.00;149516.75;5020928;28;20228;-58
2023/10/20 02:06:02;;;;;;;4.50;1.67;;;;;;;13.62;100.00;149517.97;5031194;28;20240;-58
2023/10/20 02:08:30;;;;;;;2.67;1.70;;;;;;;13.59;100.00;149511.75;5009812;28;20242;-58
2023/10/20 02:10:56;;;;;;;5.47;1.90;;;;;;;13.57;100.00;149506.78;5027769;28;20224;-57
2023/10/20 02:13:23;;;;;;;2.47;1.87;;;;;;;13.52;100.00;149495.53;5012931;28;20577;-58
2023/10/20 02:15:51;;;;;;;2.67;1.50;;;;;;;13.54;100.00;149499.28;5015044;28;20242;-58
2023/10/20 02:18:18;;;;;;;4.03;1.90;;;;;;;13.53;100.00;149496.78;5027023;28;20246;-57
2023/10/20 02:20:56;;;;;;;3.40;1.90;;;;;;;13.54;100.00;149499.28;5014028;28;20232;-55
2023/10/20 02:23:23;;;;;;;5.53;1.80;;;;;;;13.54;100.00;149500.50;5013329;28;20243;-58
2023/10/20 02:25:57;;;;;;;2.60;1.60;;;;;;;13.53;100.00;149496.78;5031048;28;20236;-58
2023/10/20 02:28:23;;;;;;;2.23;1.67;;;;;;;13.54;100.00;149499.28;5028326;28;20236;-58
2023/10/20 02:30:51;;;;;;;3.43;1.43;;;;;;;13.56;100.00;149504.28;5017079;28;20240;-58
2023/10/20 02:33:19;;;;;;;3.10;1.80;;;;;;;13.54;100.00;149499.28;5015061;28;20300;-58
2023/10/20 02:35:46;;;;;;;6.97;1.80;;;;;;;13.56;100.00;149504.28;5013976;28;20215;-58
2023/10/20 02:38:13;;;;;;;4.17;1.80;;;;;;;13.56;100.00;149504.28;5012616;28;20231;-58
2023/10/20 02:40:39;;;;;;;2.40;1.47;;;;;;;13.59;100.00;149511.75;5014981;28;20224;-58
2023/10/20 02:43:07;;;;;;;2.43;1.77;;;;;;;13.64;100.00;149522.97;5030123;28;20233;-55
2023/10/20 02:45:33;;;;;;;1.93;1.40;;;;;;;13.69;100.00;149535.47;5010256;28;20237;-58
2023/10/20 02:48:03;;;;;;;3.50;1.47;;;;;;;13.73;100.00;149546.72;5014368;28;20567;-57
2023/10/20 02:50:30;;;;;;;1.60;1.10;;;;;;;13.78;100.00;149556.69;5013749;28;20317;-57
2023/10/20 02:52:56;;;;;;;1.97;1.40;;;;;;;13.81;100.00;149564.13;5021199;28;21004;-57
2023/10/20 02:55:23;;;;;;;3.60;1.70;;;;;;;13.83;100.00;149569.13;5015346;28;20250;-58
2023/10/20 02:57:51;;;;;;;2.20;1.90;;;;;;;13.81;100.00;149564.13;5023267;28;20226;-56
2023/10/20 03:00:21;;;;;;;4.10;1.70;;;;;;;13.84;100.00;149571.63;5015077;28;20317;-57
2023/10/20 03:04:03;;;;;;;3.27;1.47;;;;;;;13.84;100.00;149572.91;5873315;23;20220;-52
2023/10/20 03:06:33;;;;;;;1.43;1.10;;;;;;;13.84;100.00;149572.91;4988332;28;20238;-53
2023/10/20 03:09:00;;;;;;;5.07;1.10;;;;;;;13.86;100.00;149576.63;4994432;28;20624;-51
2023/10/20 03:11:26;;;;;;;1.30;1.07;;;;;;;13.83;100.00;149570.41;4993080;28;20238;-51
2023/10/20 03:13:53;;;;;;;5.20;1.23;;;;;;;13.85;100.00;149574.13;4994285;28;20639;-52
2023/10/20 03:16:19;;;;;;;2.03;1.00;;;;;;;13.85;100.00;149574.13;4990288;28;20215;-51
2023/10/20 03:18:46;;;;;;;3.57;1.70;;;;;;;13.86;100.00;149576.63;5009700;28;20242;-50
2023/10/20 03:21:12;;;;;;;7.70;1.40;;;;;;;13.84;100.00;149571.63;5004543;28;20232;-53
2023/10/20 03:23:43;;;;;;;3.20;1.30;;;;;;;13.84;100.00;149571.63;5007689;28;20705;-51
2023/10/20 03:26:11;;;;;;;4.27;1.00;;;;;;;13.86;100.00;149577.88;4996849;28;20226;-51
2023/10/20 03:28:39;;;;;;;2.70;1.07;;;;;;;13.84;100.00;149571.63;5013159;28;20232;-50
2023/10/20 03:31:05;;;;;;;5.13;1.20;;;;;;;13.86;100.00;149577.88;5193862;23;20243;-51
2023/10/20 03:33:32;;;;;;;2.20;1.20;;;;;;;13.80;100.00;149562.91;5036151;28;20232;-51
2023/10/20 03:36:02;;;;;;;3.13;1.37;;;;;;;13.80;100.00;149561.63;5034580;28;20220;-53
2023/10/20 03:38:29;;;;;;;3.30;1.27;;;;;;;13.76;100.00;149552.94;5047224;28;20228;-52
2023/10/20 03:41:05;;;;;;;1.93;1.27;;;;;;;13.75;100.00;149549.22;5034642;28;20314;-51
2023/10/20 03:43:32;;;;;;;1.77;1.10;;;;;;;13.77;100.00;149554.19;5029749;28;20226;-52
2023/10/20 03:46:00;;;;;;;1.73;1.20;;;;;;;13.81;100.00;149564.13;5018425;28;20240;-53
2023/10/20 03:48:29;;;;;;;1.73;1.10;;;;;;;13.88;100.00;149581.59;5014140;28;20234;-52
2023/10/20 03:50:56;;;;;;;1.90;1.10;;;;;;;13.91;100.00;149587.88;5022489;28;20568;-51
2023/10/20 03:53:26;;;;;;;1.30;1.20;;;;;;;14.00;100.00;149610.34;5028858;28;20237;-52
2023/10/20 03:56:01;;;;;;;1.80;1.13;;;;;;;14.02;100.00;149616.56;5016646;28;20235;-51
2023/10/20 03:58:29;;;;;;;1.77;1.00;;;;;;;14.13;100.00;149642.81;5019433;28;20238;-53
2023/10/20 04:00:57;;;;;;;1.97;0.90;;;;;;;14.26;100.00;149674.00;5016442;28;20679;-51
2023/10/20 04:03:24;;;;;;;4.73;1.03;;;;;;;14.23;100.00;149666.50;5016474;28;20731;-51
2023/10/20 04:05:51;;;;;;;4.00;0.80;;;;;;;14.23;100.00;149666.50;5019269;28;20256;-51
2023/10/20 04:08:18;;;;;;;2.30;0.90;;;;;;;14.31;100.00;149685.22;5011828;28;20227;-52
2023/10/20 04:10:45;;;;;;;2.93;0.90;;;;;;;14.37;100.00;149700.19;5022956;28;20228;-51
2023/10/20 04:13:13;;;;;;;2.83;0.70;;;;;;;14.36;100.00;149696.47;5014850;28;20224;-51
2023/10/20 04:15:42;;;;;;;2.00;0.60;;;;;;;14.28;100.00;149677.75;5018634;28;20238;-53
2023/10/20 04:18:09;;;;;;;1.17;0.97;;;;;;;14.22;100.00;149664.00;5013518;28;20687;-51
2023/10/20 04:20:39;;;;;;;1.70;0.60;;;;;;;14.20;100.00;149657.78;5016319;28;20229;-51
2023/10/20 04:23:09;;;;;;;2.37;0.53;;;;;;;14.14;100.00;149645.31;5016958;28;20221;-51
2023/10/20 04:25:39;;;;;;;3.30;0.73;;;;;;;14.06;100.00;149624.06;5034754;28;20573;-51
2023/10/20 04:28:14;;;;;;;1.10;0.50;;;;;;;14.03;100.00;149617.84;5013773;28;20227;-53
2023/10/20 04:42:01;;;;;;;69.20;41.87;;;;;;;14.15;100.00;149647.81;5012822;28;20276;-52
2023/10/20 04:50:52;;;;;;;3.13;2.27;;;;;;;14.25;100.00;149671.50;4960826;28;20288;-51
2023/10/20 04:53:41;;;;;;;18.93;11.83;;;;;;;14.39;100.00;149703.97;5014035;28;20212;-51
2023/10/20 04:58:58;;;;;;;4.47;2.17;;;;;;;15.05;100.00;149863.81;5017704;28;20593;-51
2023/10/20 05:01:27;;;;;;;3.90;1.10;;;;;;;15.19;100.00;149898.78;5015053;28;20236;-51
2023/10/20 05:03:57;;;;;;;2.70;1.17;;;;;;;15.16;100.00;149890.06;5017397;28;20319;-53
2023/10/20 05:06:26;;;;;;;5.57;3.80;;;;;;;15.14;100.00;149886.31;5012306;28;20228;-51
2023/10/20 05:08:53;;;;;;;2.80;1.30;;;;;;;15.15;100.00;149887.56;5020049;28;20227;-51
2023/10/20 05:11:20;;;;;;;1.20;0.83;;;;;;;15.16;100.00;149891.28;5012110;28;20247;-51
2023/10/20 05:13:47;;;;;;;1.40;0.80;;;;;;;15.04;100.00;149862.59;5016271;28;20237;-52
2023/10/20 05:16:13;;;;;;;3.27;2.90;;;;;;;15.16;100.00;149891.28;5013371;28;20225;-51
2023/10/20 05:18:40;;;;;;;4.03;0.80;;;;;;;15.19;100.00;149898.78;5014118;28;20726;-51
2023/10/20 05:21:11;;;;;;;1.53;1.27;;;;;;;15.25;100.00;149911.28;5019546;28;20227;-51
2023/10/20 05:23:38;;;;;;;0.93;0.70;;;;;;;15.15;100.00;149887.56;5015073;28;20251;-51
2023/10/20 05:26:05;;;;;;;1.87;0.80;;;;;;;15.30;100.00;149923.78;5012154;28;20211;-52
2023/10/20 05:28:32;;;;;;;1.50;0.83;;;;;;;15.32;100.00;149928.78;5015780;28;20232;-51
2023/10/20 05:30:59;;;;;;;2.50;0.90;;;;;;;15.16;100.00;149891.28;5016390;28;20601;-51
2023/10/20 05:33:26;;;;;;;2.00;0.60;;;;;;;15.29;100.00;149922.53;5015325;28;20228;-53
2023/10/20 05:35:53;;;;;;;1.47;0.70;;;;;;;15.39;100.00;149945.00;5017720;28;20271;-53
2023/10/20 05:38:21;;;;;;;2.40;1.90;;;;;;;15.29;100.00;149922.53;5011685;28;20224;-52
2023/10/20 05:40:57;;;;;;;3.63;2.30;;;;;;;15.39;100.00;149946.25;5017101;28;20236;-51
2023/10/20 05:43:25;;;;;;;1.70;1.10;;;;;;;15.60;100.00;149996.25;5015598;28;20313;-52
2023/10/20 05:45:52;;;;;;;5.13;1.80;;;;;;;15.75;100.00;150032.47;5015274;28;20242;-52
2023/10/20 05:48:18;;;;;;;2.07;0.93;;;;;;;15.71;100.00;150023.72;5015393;28;20221;-51
2023/10/20 05:50:45;;;;;;;1.40;1.00;;;;;;;15.91;100.00;150071.22;5016819;28;20571;-53
2023/10/20 05:53:12;;;;;;;1.07;0.87;;;;;;;15.90;100.00;150068.78;5015057;28;20216;-52
2023/10/20 05:55:40;;;;;;;2.63;0.90;;;;;;;16.07;100.00;150111.22;5015295;28;20249;-54
2023/10/20 05:58:07;;;;;;;1.10;0.90;;;;;;;16.14;99.51;150127.50;5019194;28;20216;-53
2023/10/20 06:00:35;;;;;;;0.83;0.33;;;;;;;16.19;99.00;150138.72;5013705;28;20253;-52
2023/10/20 06:03:01;;;;;;;4.13;1.67;;;;;;;16.17;99.39;150133.72;5015323;28;20246;-53
2023/10/20 06:05:29;;;;;;;0.90;0.60;;;;;;;16.06;99.75;150107.50;5015507;28;20581;-51
2023/10/20 06:07:56;;;;;;;1.10;0.60;;;;;;;16.12;99.31;150121.22;5016782;28;20300;-51
2023/10/20 06:10:23;;;;;;;0.53;0.43;;;;;;;16.20;98.49;150141.22;5014124;28;20249;-51
2023/10/20 06:12:54;;;;;;;0.63;0.30;;;;;;;16.45;94.41;150201.22;5015056;28;20234;-52
2023/10/20 06:15:21;;;;;;;1.20;0.90;;;;;;;16.35;95.71;150178.72;5013575;28;20260;-52
2023/10/20 06:17:52;;;;;;;2.50;0.50;;;;;;;16.34;95.33;150176.22;5015890;28;20315;-52
2023/10/20 06:20:19;;;;;;;1.00;0.50;;;;;;;16.46;93.83;150203.72;5013986;28;20217;-51
2023/10/20 06:22:51;;;;;;;1.80;0.50;;;;;;;16.31;95.81;150168.72;5014828;28;20241;-51
2023/10/20 06:25:18;;;;;;;0.93;0.80;;;;;;;16.34;95.52;150175.00;5015319;28;20221;-51
2023/10/20 06:27:45;;;;;;;2.97;0.60;;;;;;;16.62;92.06;150243.72;5017375;28;20229;-51
2023/10/20 06:30:21;;;;;;;0.83;0.40;;;;;;;16.62;91.97;150242.44;5016677;28;20220;-51
2023/10/20 06:33:12;;;;;;;2.40;0.60;;;;;;;16.56;92.95;150228.72;5020047;28;20236;-51
2023/10/20 06:35:50;;;;;;;1.70;0.50;;;;;;;16.64;91.07;150247.44;5017982;28;20787;-52
2023/10/20 06:38:19;;;;;;;0.47;0.40;;;;;;;16.57;92.96;150231.22;5021176;28;20221;-51
2023/10/20 06:40:47;;;;;;;0.80;0.43;;;;;;;16.59;91.04;150234.94;5021040;28;20566;-52
2023/10/20 06:43:16;;;;;;;1.23;0.50;;;;;;;16.81;88.30;150289.97;5018534;28;20293;-51
2023/10/20 06:45:44;;;;;;;1.40;0.60;;;;;;;16.76;89.39;150277.47;5019226;28;20235;-53
2023/10/20 06:48:11;;;;;;;1.27;0.60;;;;;;;16.74;89.53;150271.22;5016477;28;20233;-51
2023/10/20 06:50:37;;;;;;;0.60;0.40;;;;;;;16.87;86.39;150303.75;5017472;28;20688;-51
2023/10/20 06:53:05;;;;;;;0.83;0.50;;;;;;;16.74;88.12;150272.47;5019675;28;20226;-52
2023/10/20 06:55:31;;;;;;;1.10;0.60;;;;;;;17.00;84.81;150335.03;5017020;28;20232;-53
2023/10/20 06:57:58;;;;;;;0.50;0.43;;;;;;;17.13;82.84;150365.06;5018723;28;20243;-51
2023/10/20 07:00:26;;;;;;;3.43;0.70;;;;;;;17.13;86.62;150365.06;5014444;28;20322;-53
2023/10/20 07:02:54;;;;;;;2.27;0.80;;;;;;;16.95;88.17;150323.75;5020054;28;20906;-52
2023/10/20 07:05:23;;;;;;;1.10;0.63;;;;;;;16.94;89.68;150319.97;5013826;28;20213;-54
2023/10/20 07:07:51;;;;;;;1.90;0.80;;;;;;;16.70;90.41;150261.22;5019402;28;20251;-51
2023/10/20 07:10:21;;;;;;;2.87;0.60;;;;;;;16.73;88.15;150268.75;5018433;28;20238;-54
2023/10/20 07:12:51;;;;;;;4.93;0.90;;;;;;;16.77;86.93;150278.75;5019010;28;20239;-53
2023/10/20 07:15:18;;;;;;;1.43;0.67;;;;;;;16.75;90.41;150274.97;5016297;28;20230;-54
2023/10/20 07:17:45;;;;;;;1.80;0.70;;;;;;;16.77;89.27;150278.75;5018916;28;20718;-55
2023/10/20 07:20:13;;;;;;;3.30;1.00;;;;;;;16.74;87.67;150271.22;5012946;28;20219;-54
2023/10/20 07:22:40;;;;;;;2.40;0.90;;;;;;;16.86;85.14;150299.97;5018914;28;20239;-53
2023/10/20 07:25:07;;;;;;;1.60;0.67;;;;;;;16.98;84.73;150330.03;5013827;28;20236;-51
2023/10/20 07:27:34;;;;;;;2.40;0.60;;;;;;;16.99;85.58;150332.53;5019512;28;20256;-50
2023/10/20 07:30:01;;;;;;;1.80;0.73;;;;;;;16.95;85.30;150323.75;5019521;28;20229;-53
2023/10/20 07:32:28;;;;;;;1.63;0.70;;;;;;;16.98;85.15;150330.03;5014513;28;20245;-51
2023/10/20 07:34:54;;;;;;;1.53;0.70;;;;;;;16.91;85.92;150313.75;5018043;28;20233;-51
2023/10/20 07:37:22;;;;;;;1.30;0.93;;;;;;;16.89;87.00;150308.75;5014688;28;20222;-50
2023/10/20 07:39:50;;;;;;;2.63;0.70;;;;;;;16.92;87.40;150316.25;5018088;28;20234;-52
2023/10/20 07:42:19;;;;;;;3.57;1.00;;;;;;;16.97;87.57;150328.75;5014781;28;20283;-52
2023/10/20 07:44:46;;;;;;;3.43;1.00;;;;;;;16.82;88.25;150292.47;5019505;28;20233;-51
2023/10/20 07:47:13;;;;;;;1.87;1.20;;;;;;;16.75;91.05;150273.75;5015513;28;20221;-51
2023/10/20 07:49:39;;;;;;;4.07;1.70;;;;;;;16.58;89.26;150232.44;5020712;28;20227;-51
2023/10/20 07:52:07;;;;;;;5.60;1.90;;;;;;;16.19;100.00;150140.00;5014498;28;20730;-52
2023/10/20 07:54:35;;;;;;;7.83;2.77;;;;;;;15.58;100.00;149992.47;5017040;28;20222;-53
2023/10/20 07:57:02;;;;;;;5.07;2.80;;;;;;;15.15;100.00;149887.56;5007299;28;20588;-52
2023/10/20 07:59:30;;;;;;;3.70;2.70;;;;;;;15.12;100.00;149881.31;5012603;28;20233;-51
2023/10/20 08:01:56;;;;;;;3.53;2.47;;;;;;;15.18;100.00;149896.28;5018157;28;20628;-52
2023/10/20 08:04:23;;;;;;;4.80;2.93;;;;;;;15.14;100.00;149885.06;5015107;28;20264;-52
2023/10/20 08:06:50;;;;;;;5.10;3.30;;;;;;;15.01;100.00;149855.09;5018946;28;20238;-53
2023/10/20 08:09:19;;;;;;;4.40;3.57;;;;;;;14.89;100.00;149826.34;5013971;28;20216;-53
2023/10/20 08:11:47;;;;;;;8.50;3.73;;;;;;;14.91;100.00;149831.34;5017642;28;20600;-52
2023/10/20 08:14:13;;;;;;;4.07;3.53;;;;;;;15.01;100.00;149855.09;5015434;28;20241;-52
2023/10/20 08:16:40;;;;;;;5.27;3.70;;;;;;;15.07;100.00;149868.81;5017836;28;20229;-53
2023/10/20 08:19:07;;;;;;;5.00;3.30;;;;;;;15.24;100.00;149908.78;5018239;28;20703;-50
2023/10/20 08:21:34;;;;;;;4.23;3.10;;;;;;;15.46;100.00;149962.47;5016249;28;20232;-53
2023/10/20 08:24:02;;;;;;;3.87;2.50;;;;;;;15.49;100.00;149971.25;5016472;28;20700;-53
2023/10/20 08:26:31;;;;;;;4.73;2.87;;;;;;;15.61;100.00;149999.97;5014887;28;20237;-51
2023/10/20 08:28:59;;;;;;;3.30;2.70;;;;;;;15.87;100.00;150061.28;5017348;28;20234;-53
2023/10/20 08:31:27;;;;;;;3.57;3.10;;;;;;;15.99;100.00;150090.00;5018345;28;20233;-53
2023/10/20 08:33:55;;;;;;;5.60;4.00;;;;;;;15.48;100.00;149967.47;5017033;28;20268;-52
2023/10/20 08:36:22;;;;;;;7.47;4.70;;;;;;;15.18;100.00;149896.28;5010430;28;20228;-51
2023/10/20 08:38:49;;;;;;;7.20;4.87;;;;;;;15.08;100.00;149870.09;5015200;28;20752;-53
2023/10/20 08:41:18;;;;;;;10.40;5.87;;;;;;;14.83;100.00;149811.41;5015154;28;20316;-52
2023/10/20 08:43:45;;;;;;;9.43;6.00;;;;;;;14.83;100.00;149810.13;5016618;28;20232;-50
2023/10/20 08:46:15;;;;;;;8.10;5.63;;;;;;;14.91;100.00;149830.13;5013063;28;20228;-51
2023/10/20 08:48:43;;;;;;;11.10;6.80;;;;;;;15.08;100.00;149870.09;5013205;28;20624;-51
2023/10/20 08:51:11;;;;;;;12.90;6.40;;;;;;;15.02;100.00;149856.31;5010786;28;20233;-54
2023/10/20 08:53:38;;;;;;;6.20;5.60;;;;;;;15.26;100.00;149913.78;5017555;28;20232;-51
2023/10/20 08:56:07;;;;;;;8.10;5.50;;;;;;;15.38;100.00;149943.75;5013594;28;20596;-51
2023/10/20 08:58:35;;;;;;;7.77;5.83;;;;;;;15.56;100.00;149987.47;5018472;28;20232;-52
2023/10/20 09:01:02;;;;;;;7.87;5.53;;;;;;;15.48;100.00;149968.75;5012774;28;20230;-51
2023/10/20 09:03:40;;;;;;;10.60;5.67;;;;;;;15.73;100.00;150028.72;5011616;28;20244;-52
2023/10/20 09:06:08;;;;;;;14.60;6.50;;;;;;;15.70;100.00;150021.22;5014047;28;20255;-50
2023/10/20 09:08:35;;;;;;;14.53;5.90;;;;;;;15.74;100.00;150031.22;5016043;28;20243;-53
2023/10/20 09:11:01;;;;;;;7.00;6.00;;;;;;;15.78;100.00;150039.94;5017577;28;20238;-53
2023/10/20 09:13:34;;;;;;;9.07;5.63;;;;;;;15.62;100.00;150002.47;5013343;28;20229;-53
2023/10/20 09:16:01;;;;;;;6.43;5.67;;;;;;;15.87;100.00;150061.28;5014344;28;20237;-51
2023/10/20 09:18:28;;;;;;;6.13;3.90;;;;;;;15.56;100.00;149987.47;5016476;28;20319;-50
2023/10/20 09:21:04;;;;;;;2.33;1.80;;;;;;;15.88;100.00;150063.78;5015486;28;20226;-52
2023/10/20 09:23:32;;;;;;;3.00;1.87;;;;;;;16.02;100.00;150098.72;5013905;28;20636;-51
2023/10/20 09:25:58;;;;;;;3.80;1.67;;;;;;;16.15;100.00;150128.72;5015398;28;20278;-52
2023/10/20 09:28:28;;;;;;;3.10;1.60;;;;;;;16.22;100.00;150147.50;5011991;28;20650;-50
2023/10/20 09:33:23;;;;;;;1.80;1.50;;;;;;;16.35;100.00;150178.72;4938280;28;20256;-57
2023/10/20 09:35:51;;;;;;;3.30;1.60;;;;;;;16.38;100.00;150186.22;4946429;28;20303;-57
2023/10/20 09:38:25;;;;;;;2.87;1.50;;;;;;;16.35;100.00;150177.50;4943320;28;20230;-57
2023/10/20 09:41:01;;;;;;;2.10;1.60;;;;;;;16.35;100.00;150178.72;4948472;28;20252;-56
2023/10/20 09:43:31;;;;;;;2.00;1.40;;;;;;;16.60;100.00;150237.44;4962725;28;20238;-56
2023/10/20 09:46:08;;;;;;;2.37;1.10;;;;;;;16.71;100.00;150264.97;4965207;28;20544;-56
2023/10/20 09:48:39;;;;;;;1.33;1.10;;;;;;;16.75;100.00;150274.97;4961189;28;20234;-54
2023/10/20 09:51:06;;;;;;;1.83;1.20;;;;;;;16.81;100.00;150288.75;4961847;28;20237;-56
2023/10/20 09:53:34;;;;;;;2.83;1.80;;;;;;;16.74;100.00;150271.22;4962238;28;20849;-56
2023/10/20 09:56:02;;;;;;;1.33;1.00;;;;;;;16.87;100.00;150302.47;4978162;28;20267;-55
2023/10/20 09:58:33;;;;;;;1.80;1.30;;;;;;;16.94;100.00;150321.25;4981207;28;20215;-56
2023/10/20 10:01:02;;;;;;;4.30;1.10;;;;;;;17.06;100.00;150350.03;4986371;28;20239;-57
2023/10/20 10:03:29;;;;;;;1.13;0.83;;;;;;;17.38;100.00;150427.59;4984324;28;20235;-55
2023/10/20 10:05:57;;;;;;;1.73;0.70;;;;;;;17.62;100.00;150483.84;4985979;28;20231;-57
2023/10/20 10:08:23;;;;;;;1.40;1.03;;;;;;;17.46;100.00;150445.09;4988572;28;20232;-56
2023/10/20 10:10:51;;;;;;;1.30;0.70;;;;;;;17.53;100.00;150463.84;4988655;28;20229;-56
2023/10/20 10:13:19;;;;;;;2.37;0.70;;;;;;;17.87;97.35;150545.13;4985235;28;20239;-55
2023/10/20 10:15:47;;;;;;;1.67;0.77;;;;;;;18.20;96.16;150624.00;4988288;28;20231;-54
2023/10/20 10:18:17;;;;;;;0.80;0.50;;;;;;;18.00;95.34;150576.50;4985558;28;20228;-55
2023/10/20 10:20:47;;;;;;;2.97;1.87;;;;;;;17.90;96.74;150551.41;4988928;28;20240;-56
2023/10/20 10:23:15;;;;;;;1.77;1.20;;;;;;;17.68;95.89;150500.09;4986004;28;20221;-57
2023/10/20 10:25:43;;;;;;;1.47;0.50;;;;;;;17.49;97.27;150452.59;4988225;28;20835;-57
2023/10/20 10:28:13;;;;;;;2.73;0.60;;;;;;;17.64;95.58;150488.88;4985928;28;20216;-57
2023/10/20 10:30:41;;;;;;;0.50;0.40;;;;;;;17.56;95.48;150470.06;4988006;28;20236;-57
2023/10/20 10:33:08;;;;;;;1.13;0.50;;;;;;;16.96;98.82;150324.97;4984794;28;20224;-55
2023/10/20 10:35:36;;;;;;;0.73;0.60;;;;;;;17.05;100.00;150347.53;4988883;28;20232;-57
2023/10/20 10:38:06;;;;;;;0.50;0.50;;;;;;;16.57;99.27;150231.22;4985108;28;20246;-56
2023/10/20 10:40:34;;;;;;;2.37;0.70;;;;;;;16.74;100.00;150272.47;4986583;28;20729;-56
2023/10/20 10:43:00;;;;;;;0.73;0.70;;;;;;;16.74;100.00;150271.22;4983948;28;20252;-56
2023/10/20 10:45:31;;;;;;;0.93;0.40;;;;;;;17.08;99.66;150353.78;4987895;28;20242;-55
2023/10/20 10:48:07;;;;;;;1.00;0.90;;;;;;;17.35;100.00;150418.81;4985060;28;20270;-57
2023/10/20 10:50:37;;;;;;;1.70;0.40;;;;;;;17.19;98.43;150380.06;4988748;28;20234;-57
2023/10/20 10:53:03;;;;;;;0.40;0.30;;;;;;;17.53;95.00;150463.84;4986113;28;20227;-56
2023/10/20 10:55:31;;;;;;;0.40;0.30;;;;;;;17.58;96.64;150473.84;4988588;28;20232;-57
2023/10/20 10:57:58;;;;;;;0.30;0.30;;;;;;;17.22;97.58;150388.78;4985878;28;20241;-57
2023/10/20 11:00:25;;;;;;;2.67;0.30;;;;;;;17.40;95.88;150432.59;4988253;28;20222;-56
2023/10/20 11:02:52;;;;;;;0.30;0.20;;;;;;;17.28;96.06;150402.56;4988093;28;20666;-56
2023/10/20 11:05:20;;;;;;;1.53;0.30;;;;;;;17.28;93.84;150402.56;4985731;28;20242;-57
2023/10/20 11:08:01;;;;;;;0.80;0.30;;;;;;;17.53;92.74;150463.84;4987941;28;20297;-56
2023/10/20 11:10:29;;;;;;;0.90;0.30;;;;;;;17.89;91.12;150548.91;4985649;28;20239;-57
2023/10/20 11:12:56;;;;;;;0.20;0.20;;;;;;;18.18;88.11;150619.00;4983901;28;20229;-57
2023/10/20 11:15:28;;;;;;;1.20;0.40;;;;;;;18.37;87.65;150666.56;4988924;28;20225;-57
2023/10/20 11:17:58;;;;;;;0.70;0.40;;;;;;;18.51;85.35;150699.09;4985236;28;20687;-57
2023/10/20 11:20:25;;;;;;;0.20;0.20;;;;;;;18.60;86.39;150721.63;4987377;28;20696;-56
2023/10/20 11:22:55;;;;;;;0.17;0.10;;;;;;;18.55;85.53;150709.09;4983461;28;20249;-57
2023/10/20 11:25:23;;;;;;;0.40;0.10;;;;;;;18.63;84.28;150729.13;4987166;28;20224;-57
2023/10/20 11:27:54;;;;;;;0.53;0.20;;;;;;;18.64;87.55;150731.63;4982721;28;20268;-57
2023/10/20 11:30:26;;;;;;;0.20;0.20;;;;;;;18.72;87.00;150750.38;4987167;28;20611;-57
2023/10/20 11:32:54;;;;;;;0.37;0.23;;;;;;;19.02;83.39;150823.06;4981986;28;20241;-57
2023/10/20 11:35:24;;;;;;;2.20;0.37;;;;;;;19.09;81.81;150839.31;4986874;28;20702;-58
2023/10/20 11:37:52;;;;;;;0.20;0.10;;;;;;;18.55;85.38;150710.34;4984175;28;20712;-57
2023/10/20 11:40:19;;;;;;;0.10;0.10;;;;;;;18.74;85.22;150755.41;4987164;28;20221;-57
2023/10/20 11:42:52;;;;;;;0.20;0.20;;;;;;;18.83;82.55;150776.72;4984743;28;21175;-57
2023/10/20 11:45:21;;;;;;;0.50;0.10;;;;;;;18.56;82.35;150711.59;4987417;28;20217;-58
2023/10/20 11:47:52;;;;;;;0.10;0.10;;;;;;;18.83;83.32;150777.94;4984075;28;21492;-56